createdAt,value
2023-05-10T00:00:16.908Z,99761.00
2023-05-10T00:02:46.661Z,99751.41
2023-05-10T00:05:14.561Z,99750.53
2023-05-10T00:07:45.624Z,99750.56
2023-05-10T00:10:14.023Z,99751.44
2023-05-10T00:12:43.371Z,99744.44
2023-05-10T00:15:11.779Z,99745.25
2023-05-10T00:17:40.461Z,99744.38
2023-05-10T00:20:11.820Z,99744.38
2023-05-10T00:22:39.763Z,99740.91
2023-05-10T00:25:10.197Z,99741.78
2023-05-10T00:27:38.157Z,99740.09
2023-05-10T00:30:08.405Z,99739.31
2023-05-10T00:32:36.878Z,99739.38
2023-05-10T00:35:05.988Z,99736.78
2023-05-10T00:37:35.785Z,99735.94
2023-05-10T00:40:04.151Z,99743.91
2023-05-10T00:42:32.072Z,99736.13
2023-05-10T00:44:59.858Z,99736.09
2023-05-10T00:47:28.670Z,99744.97
2023-05-10T00:49:58.289Z,99740.75
2023-05-10T00:52:27.659Z,99752.16
2023-05-10T00:54:58.052Z,99762.59
2023-05-10T00:57:26.052Z,99752.25
2023-05-10T00:59:54.395Z,99755.69
2023-05-10T01:02:22.452Z,99760.91
2023-05-10T01:04:51.097Z,99762.69
2023-05-10T01:07:19.294Z,99759.19
2023-05-10T01:09:47.634Z,99759.19
2023-05-10T01:12:16.988Z,99758.34
2023-05-10T01:14:47.517Z,99752.28
2023-05-10T01:17:17.146Z,99761.81
2023-05-10T01:19:45.278Z,99759.25
2023-05-10T01:22:54.169Z,99760.97
2023-05-10T01:25:50.501Z,99768.81
2023-05-10T01:28:40.092Z,99767.13
2023-05-10T01:31:31.774Z,99768.03
2023-05-10T01:34:09.949Z,99769.75
2023-05-10T01:36:48.975Z,99780.19
2023-05-10T01:39:25.486Z,99784.50
2023-05-10T01:42:04.380Z,99783.63
2023-05-10T01:44:39.892Z,99781.84
2023-05-10T01:47:13.227Z,99780.97
2023-05-10T01:49:50.418Z,99785.34
2023-05-10T01:52:23.280Z,99786.22
2023-05-10T01:55:00.460Z,99792.34
2023-05-10T01:57:36.199Z,99796.63
2023-05-10T02:00:07.371Z,99790.56
2023-05-10T02:02:46.894Z,99794.91
2023-05-10T02:05:19.304Z,99798.38
2023-05-10T02:07:48.608Z,99793.13
2023-05-10T02:10:18.641Z,99792.28
2023-05-10T02:12:52.024Z,99794.91
2023-05-10T02:15:25.631Z,99800.16
2023-05-10T02:17:56.820Z,99802.75
2023-05-10T02:20:27.842Z,99811.38
2023-05-10T02:22:58.677Z,99807.94
2023-05-10T02:25:29.032Z,99811.41
2023-05-10T02:28:01.416Z,99811.41
2023-05-10T02:30:32.158Z,99816.59
2023-05-10T02:33:01.603Z,99817.47
2023-05-10T02:35:34.343Z,99825.28
2023-05-10T02:38:05.814Z,99822.72
2023-05-10T02:40:35.551Z,99819.25
2023-05-10T02:43:06.576Z,99822.75
2023-05-10T02:45:37.522Z,99818.38
2023-05-10T02:48:06.622Z,99814.91
2023-05-10T02:50:40.431Z,99814.06
2023-05-10T02:53:32.254Z,99820.13
2023-05-10T02:56:08.150Z,99821.88
2023-05-10T02:58:36.525Z,99818.31
2023-05-10T03:01:05.021Z,99813.09
2023-05-10T03:03:33.052Z,99818.31
2023-05-10T03:06:02.685Z,99815.69
2023-05-10T03:08:31.233Z,99816.59
2023-05-10T03:11:38.321Z,99813.97
2023-05-10T03:14:22.233Z,99821.78
2023-05-10T03:17:05.248Z,99818.31
2023-05-10T03:19:55.556Z,99823.53
2023-05-10T03:22:33.138Z,99821.78
2023-05-10T03:25:07.038Z,99820.94
2023-05-10T03:27:39.898Z,99821.81
2023-05-10T03:30:11.361Z,99830.50
2023-05-10T03:32:40.422Z,99831.38
2023-05-10T03:35:09.593Z,99835.66
2023-05-10T03:37:40.533Z,99840.00
2023-05-10T03:40:11.105Z,99840.00
2023-05-10T03:42:41.520Z,99841.75
2023-05-10T03:45:11.002Z,99845.22
2023-05-10T03:47:39.008Z,99843.47
2023-05-10T03:50:09.026Z,99847.81
2023-05-10T03:52:37.401Z,99851.28
2023-05-10T03:55:08.789Z,99854.75
2023-05-10T03:57:37.046Z,99855.69
2023-05-10T04:00:06.437Z,99852.19
2023-05-10T04:02:43.218Z,99855.69
2023-05-10T04:05:18.754Z,99866.94
2023-05-10T04:07:48.269Z,99869.50
2023-05-10T04:10:18.708Z,99868.66
2023-05-10T04:12:47.527Z,99872.16
2023-05-10T04:15:15.477Z,99873.88
2023-05-10T04:17:43.610Z,99873.88
2023-05-10T04:20:12.950Z,99865.28
2023-05-10T04:22:41.971Z,99869.63
2023-05-10T04:25:10.513Z,99872.19
2023-05-10T04:27:39.852Z,99861.75
2023-05-10T04:30:09.306Z,99868.75
2023-05-10T04:32:38.713Z,99860.06
2023-05-10T04:35:08.173Z,99861.78
2023-05-10T04:37:37.620Z,99863.53
2023-05-10T04:40:07.512Z,99864.44
2023-05-10T04:42:35.424Z,99868.75
2023-05-10T04:45:06.146Z,99868.75
2023-05-10T04:47:34.078Z,99868.72
2023-05-10T04:50:02.035Z,99868.75
2023-05-10T04:52:30.157Z,99873.09
2023-05-10T04:54:57.945Z,99877.44
2023-05-10T04:57:25.814Z,99880.03
2023-05-10T04:59:53.795Z,99883.53
2023-05-10T05:02:23.195Z,99885.25
2023-05-10T05:04:51.010Z,99891.34
2023-05-10T05:07:18.866Z,99890.50
2023-05-10T05:09:46.735Z,99893.13
2023-05-10T05:12:15.304Z,99899.19
2023-05-10T05:14:44.704Z,99899.19
2023-05-10T05:17:12.653Z,99904.41
2023-05-10T05:19:41.722Z,99899.19
2023-05-10T05:22:09.684Z,99896.56
2023-05-10T05:24:40.862Z,99897.47
2023-05-10T05:27:08.799Z,99898.34
2023-05-10T05:29:36.634Z,99899.22
2023-05-10T05:32:07.512Z,99905.28
2023-05-10T05:34:35.528Z,99911.38
2023-05-10T05:37:04.980Z,99916.56
2023-05-10T05:39:34.541Z,99915.72
2023-05-10T05:42:02.323Z,99913.09
2023-05-10T05:44:32.698Z,99919.19
2023-05-10T05:47:00.530Z,99916.59
2023-05-10T05:49:28.413Z,99923.53
2023-05-10T05:52:04.137Z,99925.28
2023-05-10T05:54:36.775Z,99909.59
2023-05-10T05:57:06.595Z,99915.69
2023-05-10T05:59:34.652Z,99906.13
2023-05-10T06:02:02.630Z,99915.69
2023-05-10T06:04:30.734Z,99922.63
2023-05-10T06:06:58.823Z,99916.56
2023-05-10T06:09:27.326Z,99916.56
2023-05-10T06:11:58.443Z,99921.75
2023-05-10T06:14:26.512Z,99919.16
2023-05-10T06:16:54.570Z,99927.84
2023-05-10T06:19:24.077Z,99930.41
2023-05-10T06:21:53.822Z,99937.34
2023-05-10T06:24:22.878Z,99941.66
2023-05-10T06:26:51.676Z,99933.00
2023-05-10T06:29:21.171Z,99926.91
2023-05-10T06:31:49.341Z,99929.50
2023-05-10T06:34:17.373Z,99932.09
2023-05-10T06:36:46.249Z,99937.28
2023-05-10T06:39:14.224Z,99944.25
2023-05-10T06:41:43.772Z,99943.44
2023-05-10T06:44:11.742Z,99954.75
2023-05-10T06:49:10.946Z,99966.03
2023-05-10T06:51:38.743Z,99950.41
2023-05-10T06:54:06.911Z,99951.28
2023-05-10T06:56:35.647Z,99946.91
2023-05-10T06:59:03.928Z,99955.59
2023-05-10T07:01:33.288Z,99952.03
2023-05-10T07:04:02.547Z,99947.66
2023-05-10T07:06:33.948Z,99956.25
2023-05-10T07:09:02.243Z,99957.13
2023-05-10T07:11:30.026Z,99955.31
2023-05-10T07:13:57.992Z,99955.38
2023-05-10T07:16:25.954Z,99954.50
2023-05-10T07:18:54.475Z,99951.84
2023-05-10T07:21:29.613Z,99962.34
2023-05-10T07:23:59.420Z,99970.13
2023-05-10T07:26:33.157Z,99959.63
2023-05-10T07:29:11.243Z,99958.66
2023-05-10T07:31:39.814Z,99966.34
2023-05-10T07:34:08.184Z,99966.38
2023-05-10T07:36:39.829Z,99965.47
2023-05-10T07:39:08.618Z,99969.06
2023-05-10T07:41:38.645Z,99963.00
2023-05-10T07:44:07.265Z,99968.38
2023-05-10T07:46:35.146Z,99972.75
2023-05-10T07:49:03.135Z,99978.75
2023-05-10T07:51:30.968Z,99984.94
2023-05-10T07:54:00.302Z,99986.66
2023-05-10T07:56:30.613Z,99981.28
2023-05-10T07:58:59.233Z,99987.25
2023-05-10T08:01:30.827Z,99982.94
2023-05-10T08:03:58.876Z,99993.19
2023-05-10T08:06:31.122Z,99986.84
2023-05-10T08:09:00.913Z,99973.06
2023-05-10T08:11:28.839Z,99998.47
2023-05-10T08:13:56.863Z,99991.31
2023-05-10T08:16:25.559Z,99988.63
2023-05-10T08:18:56.252Z,99991.31
2023-05-10T08:21:24.649Z,99999.03
2023-05-10T08:23:52.732Z,99986.66
2023-05-10T08:26:22.684Z,99990.28
2023-05-10T08:28:50.887Z,99989.34
2023-05-10T08:31:19.273Z,99990.69
2023-05-10T08:33:47.386Z,99997.81
2023-05-10T08:36:20.674Z,100005.75
2023-05-10T08:38:52.092Z,100001.44
2023-05-10T08:41:24.964Z,100003.16
2023-05-10T08:43:54.586Z,100005.56
2023-05-10T08:46:23.889Z,99997.72
2023-05-10T08:48:53.258Z,99994.25
2023-05-10T08:51:28.804Z,100007.47
2023-05-10T08:53:57.294Z,99999.56
2023-05-10T08:56:27.170Z,100008.47
2023-05-10T08:58:55.994Z,100020.75
2023-05-10T09:01:26.426Z,100020.53
2023-05-10T09:03:54.804Z,100022.06
2023-05-10T09:06:23.432Z,100024.53
2023-05-10T09:08:51.822Z,100028.81
2023-05-10T09:11:21.986Z,100028.81
2023-05-10T09:13:53.465Z,100024.03
2023-05-10T09:16:22.547Z,100021.34
2023-05-10T09:18:51.144Z,100020.59
2023-05-10T09:21:21.707Z,100038.22
2023-05-10T09:23:51.146Z,100029.34
2023-05-10T09:26:24.015Z,100034.56
2023-05-10T09:28:58.187Z,100033.66
2023-05-10T09:31:46.180Z,100043.16
2023-05-10T09:34:18.905Z,100047.53
2023-05-10T09:36:55.857Z,100045.22
2023-05-10T09:39:33.012Z,100042.31
2023-05-10T09:42:04.898Z,100053.94
2023-05-10T09:44:35.970Z,100051.53
2023-05-10T09:47:04.805Z,100048.28
2023-05-10T09:49:34.279Z,100049.84
2023-05-10T09:52:04.189Z,100050.97
2023-05-10T09:54:33.030Z,100056.19
2023-05-10T09:57:01.935Z,100055.56
2023-05-10T09:59:31.154Z,100062.69
2023-05-10T10:02:01.575Z,100062.69
2023-05-10T10:04:31.307Z,100062.59
2023-05-10T10:07:01.664Z,100059.19
2023-05-10T10:09:29.789Z,100059.34
2023-05-10T10:11:58.606Z,100066.56
2023-05-10T10:14:27.041Z,100064.50
2023-05-10T10:17:07.397Z,100061.72
2023-05-10T10:19:38.305Z,100066.81
2023-05-10T10:22:09.291Z,100073.91
2023-05-10T10:24:37.646Z,100068.13
2023-05-10T10:27:24.575Z,100068.69
2023-05-10T10:30:10.398Z,100064.28
2023-05-10T10:33:16.533Z,100071.06
2023-05-10T10:36:00.213Z,100064.75
2023-05-10T10:38:40.208Z,100060.16
2023-05-10T10:41:28.761Z,100061.16
2023-05-10T10:44:39.229Z,100064.03
2023-05-10T10:47:25.406Z,100050.63
2023-05-10T10:50:05.724Z,100061.78
2023-05-10T10:52:37.975Z,100061.69
2023-05-10T10:55:11.660Z,100054.94
2023-05-10T10:57:49.631Z,100054.38
2023-05-10T11:00:27.705Z,100055.84
2023-05-10T11:03:00.454Z,100050.94
2023-05-10T11:05:42.697Z,100057.97
2023-05-10T11:08:17.432Z,100067.06
2023-05-10T11:11:08.232Z,100074.28
2023-05-10T11:13:41.543Z,100078.22
2023-05-10T11:16:17.712Z,100075.66
2023-05-10T11:19:03.094Z,100076.53
2023-05-10T11:21:32.530Z,100070.16
2023-05-10T11:24:16.878Z,100077.88
2023-05-10T11:26:45.711Z,100067.09
2023-05-10T11:29:22.244Z,100079.19
2023-05-10T11:31:52.787Z,100081.94
2023-05-10T11:34:27.757Z,100082.28
2023-05-10T11:36:57.419Z,100075.16
2023-05-10T11:39:31.356Z,100083.53
2023-05-10T11:42:01.564Z,100077.06
2023-05-10T11:44:31.512Z,100077.84
2023-05-10T11:47:00.697Z,100083.50
2023-05-10T11:49:29.368Z,100084.16
2023-05-10T11:52:06.445Z,100074.31
2023-05-10T11:54:36.335Z,100075.78
2023-05-10T11:57:07.298Z,100087.22
2023-05-10T11:59:37.531Z,100091.69
2023-05-10T12:02:06.025Z,100082.38
2023-05-10T12:04:34.553Z,100091.41
2023-05-10T12:07:03.227Z,100086.06
2023-05-10T12:09:42.767Z,100080.44
2023-05-10T12:12:17.894Z,100092.56
2023-05-10T12:14:51.300Z,100070.72
2023-05-10T12:17:19.131Z,100081.16
2023-05-10T12:19:49.177Z,100085.91
2023-05-10T12:22:22.250Z,100092.47
2023-05-10T12:24:51.783Z,100092.25
2023-05-10T12:27:21.645Z,100100.91
2023-05-10T12:29:51.602Z,100100.84
2023-05-10T12:32:19.556Z,100102.06
2023-05-10T12:34:48.531Z,100095.47
2023-05-10T12:37:16.460Z,100106.53
2023-05-10T12:39:46.942Z,100098.06
2023-05-10T12:42:15.394Z,100104.38
2023-05-10T12:44:46.178Z,100103.72
2023-05-10T12:47:14.506Z,100114.84
2023-05-10T12:49:42.394Z,100111.78
2023-05-10T12:52:10.850Z,100120.31
2023-05-10T12:54:39.892Z,100120.63
2023-05-10T12:57:07.765Z,100120.59
2023-05-10T12:59:37.442Z,100120.38
2023-05-10T13:02:08.513Z,100113.88
2023-05-10T13:04:40.349Z,100116.16
2023-05-10T13:07:08.541Z,100126.00
2023-05-10T13:09:36.691Z,100139.50
2023-05-10T13:12:05.888Z,100128.56
2023-05-10T13:14:34.202Z,100127.66
2023-05-10T13:17:02.315Z,100127.19
2023-05-10T13:19:31.493Z,100128.81
2023-05-10T13:21:59.779Z,100140.13
2023-05-10T13:24:28.078Z,100134.94
2023-05-10T13:26:57.145Z,100131.97
2023-05-10T13:29:25.300Z,100129.13
2023-05-10T13:31:53.340Z,100133.59
2023-05-10T13:34:21.487Z,100137.22
2023-05-10T13:36:51.649Z,100136.34
2023-05-10T13:39:19.560Z,100134.63
2023-05-10T13:41:48.393Z,100142.31
2023-05-10T13:44:16.725Z,100131.34
2023-05-10T13:46:44.730Z,100144.16
2023-05-10T13:49:13.155Z,100143.13
2023-05-10T13:51:40.981Z,100144.31
2023-05-10T13:54:12.047Z,100143.38
2023-05-10T13:56:43.469Z,100150.69
2023-05-10T13:59:11.701Z,100146.31
2023-05-10T14:01:39.705Z,100143.31
2023-05-10T14:04:12.017Z,100148.81
2023-05-10T14:06:42.174Z,100144.81
2023-05-10T14:09:12.397Z,100143.06
2023-05-10T14:11:44.103Z,100137.84
2023-05-10T14:14:12.439Z,100137.78
2023-05-10T14:16:45.026Z,100134.34
2023-05-10T14:19:13.302Z,100134.56
2023-05-10T14:21:41.210Z,100142.09
2023-05-10T14:24:09.090Z,100144.78
2023-05-10T14:26:39.248Z,100140.38
2023-05-10T14:29:09.327Z,100147.38
2023-05-10T14:31:38.774Z,100145.53
2023-05-10T14:34:07.015Z,100143.84
2023-05-10T14:36:34.920Z,100138.03
2023-05-10T14:39:03.802Z,100143.13
2023-05-10T14:41:32.167Z,100141.72
2023-05-10T14:44:01.520Z,100146.56
2023-05-10T14:46:31.050Z,100148.53
2023-05-10T14:48:59.109Z,100155.91
2023-05-10T14:51:28.426Z,100151.34
2023-05-10T14:53:57.416Z,100149.78
2023-05-10T14:56:26.652Z,100159.13
2023-05-10T14:58:54.710Z,100160.97
2023-05-10T15:01:24.933Z,100156.75
2023-05-10T15:03:53.236Z,100160.38
2023-05-10T15:06:26.244Z,100158.81
2023-05-10T15:08:54.155Z,100162.63
2023-05-10T15:11:22.801Z,100156.50
2023-05-10T15:13:51.126Z,100160.00
2023-05-10T15:16:18.968Z,100152.06
2023-05-10T15:18:49.342Z,100143.41
2023-05-10T15:21:18.409Z,100150.13
2023-05-10T15:23:47.713Z,100148.09
2023-05-10T15:26:19.275Z,100150.63
2023-05-10T15:28:49.730Z,100154.69
2023-05-10T15:31:17.612Z,100157.38
2023-05-10T15:33:45.478Z,100155.75
2023-05-10T15:36:14.657Z,100161.91
2023-05-10T15:38:42.607Z,100161.53
2023-05-10T15:41:10.806Z,100165.78
2023-05-10T15:43:38.672Z,100169.50
2023-05-10T15:46:07.262Z,100170.84
2023-05-10T15:48:35.245Z,100169.09
2023-05-10T15:51:03.571Z,100181.41
2023-05-10T15:53:34.473Z,100176.19
2023-05-10T15:56:02.388Z,100182.28
2023-05-10T15:58:31.546Z,100178.78
2023-05-10T16:00:59.480Z,100180.41
2023-05-10T16:03:27.519Z,100176.03
2023-05-10T16:05:55.384Z,100182.41
2023-05-10T16:08:23.483Z,100180.53
2023-05-10T16:10:53.386Z,100186.84
2023-05-10T16:13:21.569Z,100189.25
2023-05-10T16:15:49.729Z,100195.78
2023-05-10T16:18:18.184Z,100190.53
2023-05-10T16:20:46.822Z,100194.41
2023-05-10T16:23:15.251Z,100192.25
2023-05-10T16:25:43.326Z,100195.97
2023-05-10T16:28:12.494Z,100189.75
2023-05-10T16:30:44.944Z,100198.19
2023-05-10T16:33:14.502Z,100188.38
2023-05-10T16:35:42.387Z,100194.81
2023-05-10T16:38:10.183Z,100196.09
2023-05-10T16:40:40.120Z,100194.19
2023-05-10T16:43:09.351Z,100196.03
2023-05-10T16:45:40.997Z,100195.66
2023-05-10T16:48:10.256Z,100203.41
2023-05-10T16:50:38.593Z,100200.47
2023-05-10T16:53:06.778Z,100208.06
2023-05-10T16:55:38.508Z,100203.88
2023-05-10T16:58:06.874Z,100203.03
2023-05-10T17:00:35.254Z,100203.47
2023-05-10T17:03:05.019Z,100204.19
2023-05-10T17:05:32.869Z,100203.88
2023-05-10T17:08:00.915Z,100211.50
2023-05-10T17:10:29.175Z,100206.19
2023-05-10T17:12:57.186Z,100207.88
2023-05-10T17:15:25.335Z,100206.47
2023-05-10T17:17:55.206Z,100208.53
2023-05-10T17:20:24.509Z,100223.53
2023-05-10T17:22:52.640Z,100221.97
2023-05-10T17:25:20.615Z,100231.50
2023-05-10T17:27:48.581Z,100223.66
2023-05-10T17:30:17.288Z,100231.09
2023-05-10T17:32:48.762Z,100235.28
2023-05-10T17:35:17.071Z,100235.06
2023-05-10T17:37:46.730Z,100237.88
2023-05-10T17:40:15.003Z,100239.72
2023-05-10T17:42:42.988Z,100237.88
2023-05-10T17:45:11.961Z,100241.50
2023-05-10T17:47:43.418Z,100239.66
2023-05-10T17:50:11.476Z,100239.97
2023-05-10T17:52:39.541Z,100246.78
2023-05-10T17:55:11.900Z,100245.34
2023-05-10T17:57:40.609Z,100243.66
2023-05-10T18:00:10.118Z,100248.16
2023-05-10T18:02:38.789Z,100258.66
2023-05-10T18:05:07.917Z,100256.00
2023-05-10T18:07:36.178Z,100249.94
2023-05-10T18:10:04.835Z,100246.38
2023-05-10T18:12:35.196Z,100248.22
2023-05-10T18:15:03.338Z,100255.41
2023-05-10T18:17:31.172Z,100257.19
2023-05-10T18:19:59.171Z,100262.47
2023-05-10T18:22:27.259Z,100262.66
2023-05-10T18:24:55.642Z,100266.03
2023-05-10T18:27:23.569Z,100282.59
2023-05-10T18:29:53.164Z,100267.91
2023-05-10T18:32:32.514Z,100274.94
2023-05-10T18:35:00.600Z,100281.09
2023-05-10T18:37:28.421Z,100281.97
2023-05-10T18:39:57.679Z,100280.22
2023-05-10T18:42:26.901Z,100289.78
2023-05-10T18:44:57.536Z,100289.91
2023-05-10T18:47:26.785Z,100291.69
2023-05-10T18:49:55.371Z,100299.56
2023-05-10T18:52:23.293Z,100309.22
2023-05-10T18:54:51.936Z,100303.09
2023-05-10T18:57:21.173Z,100306.47
2023-05-10T18:59:49.435Z,100305.63
2023-05-10T19:02:18.863Z,100299.47
2023-05-10T19:04:48.570Z,100306.53
2023-05-10T19:07:16.575Z,100309.22
2023-05-10T19:09:44.455Z,100311.84
2023-05-10T19:12:12.211Z,100312.75
2023-05-10T19:14:40.592Z,100304.84
2023-05-10T19:19:57.663Z,100324.16
2023-05-10T19:22:43.561Z,100326.06
2023-05-10T19:25:19.654Z,100325.16
2023-05-10T19:27:52.667Z,100326.91
2023-05-10T19:30:21.182Z,100327.69
2023-05-10T19:32:49.286Z,100332.09
2023-05-10T19:35:20.175Z,100334.66
2023-05-10T19:37:49.318Z,100339.16
2023-05-10T19:40:18.493Z,100338.34
2023-05-10T19:42:46.645Z,100333.16
2023-05-10T19:45:15.954Z,100336.72
2023-05-10T19:47:44.219Z,100339.25
2023-05-10T19:50:14.000Z,100334.91
2023-05-10T19:52:43.906Z,100336.72
2023-05-10T19:55:25.291Z,100337.56
2023-05-10T19:57:53.506Z,100351.59
2023-05-10T20:00:21.721Z,100346.38
2023-05-10T20:02:50.271Z,100341.16
2023-05-10T20:05:18.406Z,100356.03
2023-05-10T20:07:47.892Z,100346.47
2023-05-10T20:10:16.668Z,100346.44
2023-05-10T20:12:52.459Z,100342.97
2023-05-10T20:15:23.129Z,100343.88
2023-05-10T20:17:52.905Z,100343.00
2023-05-10T20:20:21.837Z,100344.69
2023-05-10T20:22:51.837Z,100341.25
2023-05-10T20:25:19.828Z,100348.13
2023-05-10T20:27:47.693Z,100346.41
2023-05-10T20:30:16.218Z,100348.97
2023-05-10T20:32:48.119Z,100346.34
2023-05-10T20:35:16.147Z,100354.31
2023-05-10T20:37:44.041Z,100352.53
2023-05-10T20:40:13.860Z,100353.44
2023-05-10T20:42:41.978Z,100357.78
2023-05-10T20:45:12.016Z,100354.25
2023-05-10T20:47:39.930Z,100352.53
2023-05-10T20:50:08.798Z,100356.06
2023-05-10T20:52:36.703Z,100362.19
2023-05-10T20:55:06.161Z,100361.34
2023-05-10T20:57:36.432Z,100368.34
2023-05-10T21:00:05.611Z,100370.13
2023-05-10T21:02:33.615Z,100384.94
2023-05-10T21:05:01.963Z,100378.84
2023-05-10T21:07:32.376Z,100387.56
2023-05-10T21:10:00.291Z,100380.59
2023-05-10T21:12:31.959Z,100388.44
2023-05-10T21:15:01.540Z,100385.78
2023-05-10T21:17:29.392Z,100385.75
2023-05-10T21:19:57.212Z,100391.03
2023-05-10T21:22:25.398Z,100381.38
2023-05-10T21:24:53.706Z,100392.69
2023-05-10T21:27:21.954Z,100388.31
2023-05-10T21:29:50.015Z,100395.28
2023-05-10T21:32:20.243Z,100397.91
2023-05-10T21:34:48.072Z,100397.06
2023-05-10T21:37:17.437Z,100401.41
2023-05-10T21:39:46.616Z,100390.94
2023-05-10T21:42:14.532Z,100389.25
2023-05-10T21:44:43.228Z,100387.47
2023-05-10T21:47:11.132Z,100388.34
2023-05-10T21:49:40.445Z,100391.84
2023-05-10T21:52:08.661Z,100397.94
2023-05-10T21:54:40.787Z,100393.59
2023-05-10T21:57:08.657Z,100388.38
2023-05-10T21:59:36.769Z,100392.72
2023-05-10T22:02:04.803Z,100395.34
2023-05-10T22:04:32.726Z,100390.13
2023-05-10T22:07:02.366Z,100393.59
2023-05-10T22:09:30.386Z,100396.19
2023-05-10T22:11:58.324Z,100396.19
2023-05-10T22:14:26.174Z,100392.69
2023-05-10T22:16:54.017Z,100392.69
2023-05-10T22:19:24.538Z,100393.59
2023-05-10T22:21:53.192Z,100392.69
2023-05-10T22:24:24.632Z,100393.56
2023-05-10T22:26:54.142Z,100390.97
2023-05-10T22:29:23.822Z,100390.97
2023-05-10T22:31:51.683Z,100397.94
2023-05-10T22:34:20.015Z,100393.56
2023-05-10T22:36:50.723Z,100399.66
2023-05-10T22:39:18.533Z,100397.91
2023-05-10T22:41:47.867Z,100397.91
2023-05-10T22:44:16.137Z,100403.16
2023-05-10T22:46:44.000Z,100404.88
2023-05-10T22:49:13.244Z,100404.00
2023-05-10T22:51:41.108Z,100406.56
2023-05-10T22:54:08.866Z,100403.94
2023-05-10T22:56:36.775Z,100412.69
2023-05-10T22:59:06.045Z,100416.16
2023-05-10T23:01:34.117Z,100415.28
2023-05-10T23:04:01.932Z,100413.53
2023-05-10T23:06:29.812Z,100412.63
2023-05-10T23:08:57.609Z,100410.00
2023-05-10T23:11:25.527Z,100413.50
2023-05-10T23:13:53.235Z,100413.50
2023-05-10T23:16:22.538Z,100414.34
2023-05-10T23:18:50.501Z,100413.44
2023-05-10T23:21:18.449Z,100410.00
2023-05-10T23:23:46.290Z,100409.13
2023-05-10T23:26:14.325Z,100406.53
2023-05-10T23:28:42.367Z,100415.22
2023-05-10T23:31:10.548Z,100411.69
2023-05-10T23:33:39.930Z,100413.47
2023-05-10T23:36:08.777Z,100406.47
2023-05-10T23:38:38.343Z,100409.97
2023-05-10T23:41:06.195Z,100408.19
2023-05-10T23:43:34.030Z,100410.75
2023-05-10T23:46:01.947Z,100410.69
2023-05-10T23:48:29.989Z,100412.50
2023-05-10T23:51:00.221Z,100411.53
2023-05-10T23:53:28.434Z,100414.97
2023-05-10T23:55:56.530Z,100417.59
2023-05-10T23:58:24.423Z,100417.59
